Wetterdaten: Freitag, 27.02.2015
Datum Zeit Auen-Temp. Temp. -10 cm Luftfeuchte Luftfeuchte Luftdruck Regen Wind Richtung Richtung Taupunkt Windchill Windben
27.02.2015 00:00 -7,0 C 1,0 C 79 % 79 % 1016,2 hPa 0,0 l/m 0,2 km/h (0 Bft) NW 315 -10,0 C -7,9 C 0,0 km/h (0 Bft)
27.02.2015 00:05 -7,1 C 1,0 C 79 % 79 % 1016,2 hPa 0,0 l/m 0,0 km/h (0 Bft) NW 315 -10,1 C -8,1 C 0,0 km/h (0 Bft)
27.02.2015 00:10 -7,2 C 1,0 C 79 % 79 % 1016,2 hPa 0,0 l/m 0,0 km/h (0 Bft) S-SO 157 -10,2 C -8,5 C 0,0 km/h (0 Bft)
27.02.2015 00:15 -7,0 C 1,0 C 79 % 79 % 1016,1 hPa 0,0 l/m 0,0 km/h (0 Bft) S 180 -10,0 C -8,3 C 0,0 km/h (0 Bft)
27.02.2015 00:20 -6,9 C 1,0 C 79 % 79 % 1016,1 hPa 0,0 l/m 0,0 km/h (0 Bft) W-SW 247 -9,9 C -8,3 C 0,0 km/h (0 Bft)
27.02.2015 00:25 -7,2 C 1,0 C 79 % 79 % 1016,1 hPa 0,0 l/m 0,0 km/h (0 Bft) SW 225 -10,2 C -8,5 C 0,0 km/h (0 Bft)
27.02.2015 00:30 -7,7 C 1,0 C 78 % 78 % 1016,1 hPa 0,0 l/m 0,0 km/h (0 Bft) W-SW 247 -10,9 C -8,7 C 0,0 km/h (0 Bft)
27.02.2015 00:35 -7,8 C 1,0 C 78 % 78 % 1015,9 hPa 0,0 l/m 0,0 km/h (0 Bft) SW 225 -10,9 C -8,9 C 0,0 km/h (0 Bft)
27.02.2015 00:40 -7,8 C 1,0 C 78 % 78 % 1015,9 hPa 0,0 l/m 0,0 km/h (0 Bft) W-SW 247 -10,9 C -9,1 C 0,0 km/h (0 Bft)
27.02.2015 00:45 -7,9 C 1,0 C 78 % 78 % 1015,9 hPa 0,0 l/m 0,0 km/h (0 Bft) W-SW 247 -11,0 C -9,2 C 0,0 km/h (0 Bft)
27.02.2015 00:50 -7,8 C 1,0 C 79 % 79 % 1015,9 hPa 0,0 l/m 0,0 km/h (0 Bft) W-SW 247 -10,8 C -9,2 C 0,0 km/h (0 Bft)
27.02.2015 00:55 -7,8 C 1,0 C 79 % 79 % 1015,5 hPa 0,0 l/m 0,0 km/h (0 Bft) W-SW 247 -10,8 C -9,2 C 0,0 km/h (0 Bft)
27.02.2015 01:00 -7,2 C 1,0 C 79 % 79 % 1015,5 hPa 0,0 l/m 0,0 km/h (0 Bft) W-SW 247 -10,2 C -8,9 C 0,0 km/h (0 Bft)
27.02.2015 01:05 -7,2 C 1,0 C 79 % 79 % 1015,5 hPa 0,0 l/m 0,0 km/h (0 Bft) W 270 -10,2 C -8,8 C 0,0 km/h (0 Bft)
27.02.2015 01:10 -7,7 C 1,0 C 79 % 79 % 1015,5 hPa 0,0 l/m 0,0 km/h (0 Bft) W-SW 247 -10,7 C -8,9 C 0,0 km/h (0 Bft)
27.02.2015 01:15 -8,1 C 1,0 C 79 % 79 % 1015,4 hPa 0,0 l/m 0,0 km/h (0 Bft) W-SW 247 -11,1 C -9,1 C 0,0 km/h (0 Bft)
27.02.2015 01:20 -8,1 C 1,0 C 79 % 79 % 1015,4 hPa 0,0 l/m 0,0 km/h (0 Bft) O 90 -11,1 C -9,3 C 0,0 km/h (0 Bft)
27.02.2015 01:25 -8,2 C 1,0 C 79 % 79 % 1015,4 hPa 0,0 l/m 0,0 km/h (0 Bft) O 90 -11,2 C -9,3 C 0,0 km/h (0 Bft)
27.02.2015 01:30 -8,4 C 1,0 C 79 % 79 % 1015,4 hPa 0,0 l/m 0,0 km/h (0 Bft) O-SO 112 -11,4 C -9,4 C 0,0 km/h (0 Bft)
27.02.2015 01:35 -8,3 C 1,0 C 79 % 79 % 1015,2 hPa 0,0 l/m 0,0 km/h (0 Bft) O-SO 112 -11,3 C -9,3 C 0,0 km/h (0 Bft)
27.02.2015 01:40 -8,4 C 1,0 C 79 % 79 % 1015,2 hPa 0,0 l/m 0,0 km/h (0 Bft) O-NO 67 -11,4 C -9,3 C 0,0 km/h (0 Bft)
27.02.2015 01:45 -8,3 C 1,0 C 79 % 79 % 1015,2 hPa 0,0 l/m 0,0 km/h (0 Bft) SO 135 -11,3 C -9,2 C 0,0 km/h (0 Bft)
27.02.2015 01:50 -8,2 C 1,0 C 79 % 79 % 1015,2 hPa 0,0 l/m 0,0 km/h (0 Bft) SO 135 -11,2 C -9,3 C 0,0 km/h (0 Bft)
27.02.2015 01:55 -8,3 C 1,0 C 79 % 79 % 1015,1 hPa 0,0 l/m 0,0 km/h (0 Bft) W 270 -11,3 C -9,3 C 0,0 km/h (0 Bft)
27.02.2015 02:00 -8,5 C 1,0 C 79 % 79 % 1015,1 hPa 0,0 l/m 0,0 km/h (0 Bft) SW 225 -11,5 C -9,4 C 0,0 km/h (0 Bft)
27.02.2015 02:05 -8,9 C 1,0 C 79 % 79 % 1015,1 hPa 0,0 l/m 0,0 km/h (0 Bft) SW 225 -11,9 C -9,5 C 0,0 km/h (0 Bft)
27.02.2015 02:10 -9,1 C 1,0 C 79 % 79 % 1015,1 hPa 0,0 l/m 0,0 km/h (0 Bft) SW 225 -12,1 C -9,6 C 0,0 km/h (0 Bft)
27.02.2015 02:15 -9,2 C 1,0 C 79 % 79 % 1014,7 hPa 0,0 l/m 0,0 km/h (0 Bft) SW 225 -12,2 C -9,8 C 0,0 km/h (0 Bft)
27.02.2015 02:20 -9,1 C 1,0 C 79 % 79 % 1014,7 hPa 0,0 l/m 0,0 km/h (0 Bft) SW 225 -12,1 C -10,0 C 0,0 km/h (0 Bft)
27.02.2015 02:25 -9,3 C 1,0 C 78 % 78 % 1014,7 hPa 0,0 l/m 0,0 km/h (0 Bft) SW 225 -12,4 C -10,0 C 0,0 km/h (0 Bft)
27.02.2015 02:30 -9,3 C 1,0 C 78 % 78 % 1014,7 hPa 0,0 l/m 0,0 km/h (0 Bft) SO 135 -12,4 C -10,3 C 0,0 km/h (0 Bft)
27.02.2015 02:35 -9,3 C 1,0 C 78 % 78 % 1014,5 hPa 0,0 l/m 0,0 km/h (0 Bft) SO 135 -12,4 C -10,1 C 0,0 km/h (0 Bft)
27.02.2015 02:40 -9,3 C 1,0 C 78 % 78 % 1014,5 hPa 0,0 l/m 0,0 km/h (0 Bft) SO 135 -12,4 C -10,1 C 0,0 km/h (0 Bft)
27.02.2015 02:45 -9,2 C 1,0 C 78 % 78 % 1014,5 hPa 0,0 l/m 0,0 km/h (0 Bft) O-SO 112 -12,3 C -10,0 C 0,0 km/h (0 Bft)
27.02.2015 02:50 -8,7 C 1,0 C 79 % 79 % 1014,5 hPa 0,0 l/m 0,0 km/h (0 Bft) O-SO 112 -11,7 C -9,7 C 0,0 km/h (0 Bft)
27.02.2015 02:55 -8,9 C 1,0 C 78 % 78 % 1014,4 hPa 0,0 l/m 0,0 km/h (0 Bft) O-SO 112 -12,0 C -9,7 C 0,0 km/h (0 Bft)
27.02.2015 03:00 -9,0 C 1,0 C 78 % 78 % 1014,4 hPa 0,0 l/m 0,0 km/h (0 Bft) SO 135 -12,1 C -9,7 C 0,0 km/h (0 Bft)
27.02.2015 03:05 -9,0 C 1,0 C 78 % 78 % 1014,4 hPa 0,0 l/m 0,0 km/h (0 Bft) SO 135 -12,1 C -9,8 C 0,0 km/h (0 Bft)
27.02.2015 03:10 -8,6 C 1,0 C 79 % 79 % 1014,4 hPa 0,0 l/m 0,0 km/h (0 Bft) O-SO 112 -11,6 C -9,9 C 0,0 km/h (0 Bft)
27.02.2015 03:15 -8,7 C 1,0 C 79 % 79 % 1014,1 hPa 0,0 l/m 0,0 km/h (0 Bft) SO 135 -11,7 C -9,8 C 0,0 km/h (0 Bft)
27.02.2015 03:20 -9,1 C 1,0 C 78 % 78 % 1014,1 hPa 0,0 l/m 0,0 km/h (0 Bft) W 270 -12,2 C -9,9 C 0,0 km/h (0 Bft)
27.02.2015 03:25 -9,3 C 1,0 C 78 % 78 % 1014,1 hPa 0,0 l/m 0,0 km/h (0 Bft) W 270 -12,4 C -10,0 C 0,0 km/h (0 Bft)
27.02.2015 03:30 -8,9 C 1,0 C 78 % 78 % 1014,1 hPa 0,0 l/m 0,0 km/h (0 Bft) S-SO 157 -12,0 C -10,3 C 0,0 km/h (0 Bft)
27.02.2015 03:35 -8,6 C 1,0 C 78 % 78 % 1013,7 hPa 0,0 l/m 0,0 km/h (0 Bft) SO 135 -11,7 C -10,1 C 0,0 km/h (0 Bft)
27.02.2015 03:40 -8,6 C 1,0 C 78 % 78 % 1013,7 hPa 0,0 l/m 0,0 km/h (0 Bft) NW 315 -11,7 C -10,0 C 0,0 km/h (0 Bft)
27.02.2015 03:45 -8,8 C 1,0 C 78 % 78 % 1013,7 hPa 0,0 l/m 0,2 km/h (0 Bft) S 180 -11,9 C -10,0 C 0,0 km/h (0 Bft)
27.02.2015 03:50 -9,1 C 1,0 C 78 % 78 % 1013,7 hPa 0,0 l/m 0,2 km/h (0 Bft) S 180 -12,2 C -10,3 C 0,0 km/h (0 Bft)
27.02.2015 03:55 -8,9 C 1,0 C 78 % 78 % 1013,5 hPa 0,0 l/m 0,0 km/h (0 Bft) SW 225 -12,0 C -10,3 C 0,0 km/h (0 Bft)
27.02.2015 04:00 -9,3 C 1,0 C 78 % 78 % 1013,5 hPa 0,0 l/m 0,0 km/h (0 Bft) S-SO 157 -12,4 C -10,5 C 0,0 km/h (0 Bft)
27.02.2015 04:05 -9,0 C 1,0 C 78 % 78 % 1013,5 hPa 0,0 l/m 0,0 km/h (0 Bft) S-SO 157 -12,1 C -10,4 C 0,0 km/h (0 Bft)
27.02.2015 04:10 -8,6 C 1,0 C 78 % 78 % 1013,5 hPa 0,0 l/m 0,0 km/h (0 Bft) W-SW 247 -11,7 C -10,3 C 0,0 km/h (0 Bft)
27.02.2015 04:15 -8,8 C 1,0 C 78 % 78 % 1013,4 hPa 0,0 l/m 0,0 km/h (0 Bft) W-SW 247 -11,9 C -10,3 C 0,0 km/h (0 Bft)
27.02.2015 04:20 -9,1 C 1,0 C 78 % 78 % 1013,4 hPa 0,0 l/m 0,0 km/h (0 Bft) O-SO 112 -12,2 C -10,3 C 1,9 km/h (1 Bft)
27.02.2015 04:25 -8,8 C 1,0 C 78 % 78 % 1013,4 hPa 0,0 l/m 0,2 km/h (0 Bft) O-NO 67 -11,9 C -10,3 C 0,0 km/h (0 Bft)
27.02.2015 04:30 -9,1 C 1,0 C 78 % 78 % 1013,4 hPa 0,0 l/m 0,0 km/h (0 Bft) N-NO 22 -12,2 C -10,3 C 0,0 km/h (0 Bft)
27.02.2015 04:35 -9,2 C 1,0 C 78 % 78 % 1012,9 hPa 0,0 l/m 0,0 km/h (0 Bft) N-NO 22 -12,3 C -10,3 C 0,0 km/h (0 Bft)
27.02.2015 04:40 -9,2 C 1,0 C 78 % 78 % 1012,9 hPa 0,0 l/m 0,0 km/h (0 Bft) S-SO 157 -12,3 C -10,5 C 0,0 km/h (0 Bft)
27.02.2015 04:45 -9,2 C 1,0 C 78 % 78 % 1012,9 hPa 0,0 l/m 0,0 km/h (0 Bft) S 180 -12,3 C -10,5 C 0,0 km/h (0 Bft)
27.02.2015 04:50 -9,0 C 1,0 C 78 % 78 % 1012,9 hPa 0,0 l/m 0,0 km/h (0 Bft) S-SO 157 -12,1 C -10,4 C 0,0 km/h (0 Bft)
27.02.2015 04:55 -8,8 C 1,0 C 78 % 78 % 1012,9 hPa 0,0 l/m 0,0 km/h (0 Bft) S-SO 157 -11,9 C -10,4 C 0,0 km/h (0 Bft)
27.02.2015 05:00 -8,8 C 1,0 C 78 % 78 % 1012,9 hPa 0,0 l/m 0,0 km/h (0 Bft) W-SW 247 -11,9 C -10,3 C 0,0 km/h (0 Bft)
27.02.2015 05:05 -9,0 C 1,0 C 78 % 78 % 1012,9 hPa 0,0 l/m 0,0 km/h (0 Bft) W-NW 292 -12,1 C -10,3 C 0,0 km/h (0 Bft)
27.02.2015 05:10 -9,2 C 1,0 C 78 % 78 % 1012,9 hPa 0,0 l/m 0,0 km/h (0 Bft) S 180 -12,3 C -10,4 C 0,0 km/h (0 Bft)
27.02.2015 05:15 -9,3 C 1,0 C 78 % 78 % 1012,6 hPa 0,0 l/m 0,0 km/h (0 Bft) S 180 -12,4 C -10,5 C 0,0 km/h (0 Bft)
27.02.2015 05:20 -9,2 C 1,0 C 78 % 78 % 1012,6 hPa 0,0 l/m 0,0 km/h (0 Bft) S 180 -12,3 C -10,4 C 0,0 km/h (0 Bft)
27.02.2015 05:25 -9,3 C 1,0 C 78 % 78 % 1012,6 hPa 0,0 l/m 0,0 km/h (0 Bft) W-SW 247 -12,4 C -10,5 C 0,0 km/h (0 Bft)
27.02.2015 05:30 -9,3 C 1,0 C 78 % 78 % 1012,6 hPa 0,0 l/m 0,0 km/h (0 Bft) O-SO 112 -12,4 C -10,5 C 0,0 km/h (0 Bft)
27.02.2015 05:35 -9,4 C 1,0 C 78 % 78 % 1012,6 hPa 0,0 l/m 0,0 km/h (0 Bft) O-NO 67 -12,5 C -10,5 C 0,0 km/h (0 Bft)
27.02.2015 05:40 -9,2 C 1,0 C 78 % 78 % 1012,6 hPa 0,0 l/m 0,0 km/h (0 Bft) SO 135 -12,3 C -10,5 C 0,0 km/h (0 Bft)
27.02.2015 05:45 -9,2 C 1,0 C 78 % 78 % 1012,6 hPa 0,0 l/m 0,0 km/h (0 Bft) O-NO 67 -12,3 C -10,6 C 0,0 km/h (0 Bft)
27.02.2015 05:50 -9,5 C 1,0 C 78 % 78 % 1012,6 hPa 0,0 l/m 0,0 km/h (0 Bft) O-SO 112 -12,6 C -10,6 C 2,1 km/h (1 Bft)
27.02.2015 05:55 -9,4 C 1,0 C 78 % 78 % 1012,3 hPa 0,0 l/m 0,0 km/h (0 Bft) NO 45 -12,5 C -10,6 C 0,0 km/h (0 Bft)
27.02.2015 06:00 -9,2 C 1,0 C 78 % 78 % 1012,3 hPa 0,0 l/m 0,0 km/h (0 Bft) O-NO 67 -12,3 C -10,5 C 0,0 km/h (0 Bft)
27.02.2015 06:05 -8,9 C 1,0 C 78 % 78 % 1012,3 hPa 0,0 l/m 0,2 km/h (0 Bft) O-NO 67 -12,0 C -10,4 C 0,0 km/h (0 Bft)
27.02.2015 06:10 -9,0 C 1,0 C 78 % 78 % 1012,3 hPa 0,0 l/m 0,2 km/h (0 Bft) SO 135 -12,1 C -10,3 C 0,0 km/h (0 Bft)
27.02.2015 06:15 -9,0 C 1,0 C 78 % 78 % 1012,4 hPa 0,0 l/m 0,0 km/h (0 Bft) W 270 -12,1 C -10,4 C 0,0 km/h (0 Bft)
27.02.2015 06:20 -9,5 C 1,0 C 78 % 78 % 1012,4 hPa 0,0 l/m 0,0 km/h (0 Bft) O-SO 112 -12,6 C -10,6 C 0,0 km/h (0 Bft)
27.02.2015 06:25 -9,4 C 1,0 C 78 % 78 % 1012,4 hPa 0,0 l/m 0,0 km/h (0 Bft) SO 135 -12,5 C -10,5 C 0,0 km/h (0 Bft)
27.02.2015 06:30 -9,6 C 1,0 C 78 % 78 % 1012,4 hPa 0,0 l/m 0,0 km/h (0 Bft) SO 135 -12,7 C -10,6 C 0,0 km/h (0 Bft)
27.02.2015 06:35 -9,7 C 1,0 C 78 % 78 % 1012,2 hPa 0,0 l/m 0,0 km/h (0 Bft) SO 135 -12,8 C -10,6 C 0,0 km/h (0 Bft)
27.02.2015 06:40 -9,8 C 1,0 C 78 % 78 % 1012,2 hPa 0,0 l/m 0,0 km/h (0 Bft) SO 135 -12,9 C -10,9 C 0,0 km/h (0 Bft)
27.02.2015 06:45 -9,8 C 1,0 C 78 % 78 % 1012,2 hPa 0,0 l/m 0,0 km/h (0 Bft) SO 135 -12,9 C -10,9 C 0,0 km/h (0 Bft)
27.02.2015 06:50 -10,0 C 1,0 C 78 % 78 % 1012,2 hPa 0,0 l/m 0,0 km/h (0 Bft) S-SO 157 -13,1 C -10,9 C 0,0 km/h (0 Bft)
27.02.2015 06:55 -10,0 C 1,0 C 78 % 78 % 1012,1 hPa 0,0 l/m 0,0 km/h (0 Bft) S-SO 157 -13,1 C -11,0 C 0,0 km/h (0 Bft)
27.02.2015 07:00 -10,0 C 1,0 C 78 % 78 % 1012,1 hPa 0,0 l/m 0,0 km/h (0 Bft) S-SO 157 -13,1 C -11,1 C 0,0 km/h (0 Bft)
27.02.2015 07:05 -9,9 C 1,0 C 78 % 78 % 1012,1 hPa 0,0 l/m 0,0 km/h (0 Bft) S-SO 157 -13,0 C -11,0 C 0,0 km/h (0 Bft)
27.02.2015 07:10 -10,1 C 1,0 C 78 % 78 % 1012,1 hPa 0,0 l/m 0,0 km/h (0 Bft) S-SO 157 -13,2 C -11,0 C 0,0 km/h (0 Bft)
27.02.2015 07:15 -10,1 C 1,0 C 78 % 78 % 1012,1 hPa 0,0 l/m 0,0 km/h (0 Bft) S-SO 157 -13,2 C -11,0 C 0,0 km/h (0 Bft)
27.02.2015 07:20 -9,4 C 1,0 C 78 % 78 % 1012,1 hPa 0,0 l/m 0,0 km/h (0 Bft) W-SW 247 -12,5 C -10,8 C 0,0 km/h (0 Bft)
27.02.2015 07:25 -9,6 C 1,0 C 78 % 78 % 1012,1 hPa 0,0 l/m 0,0 km/h (0 Bft) S 180 -12,7 C -10,8 C 0,0 km/h (0 Bft)
27.02.2015 07:30 -9,8 C 1,0 C 78 % 78 % 1012,1 hPa 0,0 l/m 0,0 km/h (0 Bft) S-SO 157 -12,9 C -10,8 C 0,0 km/h (0 Bft)
27.02.2015 07:35 -9,9 C 1,0 C 78 % 78 % 1012,0 hPa 0,0 l/m 0,0 km/h (0 Bft) SO 135 -13,0 C -10,6 C 0,0 km/h (0 Bft)
27.02.2015 07:40 -9,7 C 1,0 C 78 % 78 % 1012,0 hPa 0,0 l/m 0,0 km/h (0 Bft) N 360 -12,8 C -10,6 C 0,0 km/h (0 Bft)
27.02.2015 07:45 -9,6 C 1,0 C 78 % 78 % 1012,0 hPa 0,0 l/m 0,0 km/h (0 Bft) N 360 -12,7 C -10,5 C 0,0 km/h (0 Bft)
27.02.2015 07:50 -9,6 C 1,0 C 78 % 78 % 1012,0 hPa 0,0 l/m 0,0 km/h (0 Bft) N 360 -12,7 C -10,5 C 0,0 km/h (0 Bft)
27.02.2015 07:55 -9,7 C 1,0 C 78 % 78 % 1012,1 hPa 0,0 l/m 0,0 km/h (0 Bft) N 360 -12,8 C -10,4 C 0,0 km/h (0 Bft)
27.02.2015 08:00 -9,6 C 1,0 C 78 % 78 % 1012,1 hPa 0,0 l/m 0,0 km/h (0 Bft) NO 45 -12,7 C -10,3 C 0,0 km/h (0 Bft)
27.02.2015 08:05 -9,3 C 1,0 C 78 % 78 % 1012,1 hPa 0,0 l/m 0,0 km/h (0 Bft) O-SO 112 -12,4 C -10,0 C 0,0 km/h (0 Bft)
27.02.2015 08:10 -9,2 C 1,0 C 78 % 78 % 1012,1 hPa 0,0 l/m 0,0 km/h (0 Bft) O-SO 112 -12,3 C -9,6 C 0,0 km/h (0 Bft)
27.02.2015 08:15 -9,2 C 1,0 C 78 % 78 % 1012,2 hPa 0,0 l/m 0,0 km/h (0 Bft) O-SO 112 -12,3 C -9,3 C 0,0 km/h (0 Bft)
27.02.2015 08:20 -9,2 C 1,0 C 78 % 78 % 1012,2 hPa 0,0 l/m 0,0 km/h (0 Bft) SO 135 -12,3 C -8,3 C 0,0 km/h (0 Bft)
27.02.2015 08:25 -9,2 C 1,0 C 79 % 79 % 1012,2 hPa 0,0 l/m 0,2 km/h (0 Bft) S-SW 202 -12,2 C -7,7 C 3,5 km/h (1 Bft)
27.02.2015 08:30 -9,2 C 1,0 C 79 % 79 % 1012,2 hPa 0,0 l/m 1,9 km/h (1 Bft) O-NO 67 -12,2 C -6,1 C 6,1 km/h (2 Bft)
27.02.2015 08:35 -9,2 C 0,9 C 79 % 79 % 1012,4 hPa 0,0 l/m 1,9 km/h (1 Bft) N-NW 337 -12,2 C -5,6 C 0,0 km/h (0 Bft)
27.02.2015 08:40 -4,1 C 1,1 C 79 % 79 % 1012,4 hPa 0,0 l/m 0,2 km/h (0 Bft) SO 135 -7,2 C -4,9 C 1,6 km/h (1 Bft)
27.02.2015 08:45 -3,5 C 1,1 C 79 % 79 % 1012,4 hPa 0,0 l/m 0,0 km/h (0 Bft) S-SO 157 -6,6 C -4,5 C 0,0 km/h (0 Bft)
27.02.2015 08:50 -2,7 C 1,0 C 80 % 80 % 1012,4 hPa 0,0 l/m 0,0 km/h (0 Bft) S 180 -5,7 C -3,5 C 0,0 km/h (0 Bft)
27.02.2015 08:55 -2,3 C 1,0 C 80 % 80 % 1012,4 hPa 0,0 l/m 0,0 km/h (0 Bft) W-SW 247 -5,3 C -2,8 C 0,0 km/h (0 Bft)
27.02.2015 09:00 -1,7 C 1,0 C 80 % 80 % 1012,4 hPa 0,0 l/m 0,8 km/h (0 Bft) W-SW 247 -4,7 C -2,2 C 2,9 km/h (1 Bft)
27.02.2015 09:05 -1,5 C 1,0 C 80 % 80 % 1012,4 hPa 0,0 l/m 2,3 km/h (1 Bft) S 180 -4,5 C -2,3 C 6,1 km/h (2 Bft)
27.02.2015 09:10 -1,3 C 1,0 C 79 % 79 % 1012,4 hPa 0,0 l/m 4,0 km/h (1 Bft) SW 225 -4,5 C -3,9 C 7,2 km/h (2 Bft)
27.02.2015 09:15 -0,9 C 1,0 C 79 % 79 % 1012,2 hPa 0,0 l/m 4,2 km/h (1 Bft) SW 225 -4,1 C -4,1 C 4,8 km/h (1 Bft)
27.02.2015 09:20 -0,8 C 1,0 C 78 % 78 % 1012,2 hPa 0,0 l/m 4,2 km/h (1 Bft) S-SO 157 -4,1 C -4,1 C 10,5 km/h (2 Bft)
27.02.2015 09:25 -0,5 C 1,0 C 77 % 77 % 1012,2 hPa 0,0 l/m 4,2 km/h (1 Bft) S 180 -4,0 C -4,0 C 6,6 km/h (2 Bft)
27.02.2015 09:30 0,0 C 0,9 C 75 % 75 % 1012,2 hPa 0,0 l/m 3,2 km/h (1 Bft) W-SW 247 -3,9 C -2,7 C 1,6 km/h (1 Bft)
27.02.2015 09:35 0,3 C 0,9 C 74 % 74 % 1012,2 hPa 0,0 l/m 1,9 km/h (1 Bft) W 270 -3,8 C -1,5 C 2,1 km/h (1 Bft)
27.02.2015 09:40 0,7 C 0,9 C 71 % 71 % 1012,2 hPa 0,0 l/m 0,8 km/h (0 Bft) W-SW 247 -3,9 C -0,9 C 2,7 km/h (1 Bft)
27.02.2015 09:45 0,8 C 0,9 C 68 % 68 % 1012,2 hPa 0,0 l/m 0,5 km/h (0 Bft) N-NW 337 -4,4 C -0,6 C 0,0 km/h (0 Bft)
27.02.2015 09:50 1,2 C 0,9 C 66 % 66 % 1012,2 hPa 0,0 l/m 0,2 km/h (0 Bft) N-NW 337 -4,4 C -0,1 C 0,0 km/h (0 Bft)
27.02.2015 09:55 1,4 C 1,0 C 64 % 64 % 1012,4 hPa 0,0 l/m 0,0 km/h (0 Bft) W 270 -4,6 C 0,3 C 0,0 km/h (0 Bft)
27.02.2015 10:00 1,7 C 1,0 C 63 % 63 % 1012,4 hPa 0,0 l/m 0,0 km/h (0 Bft) NO 45 -4,6 C 1,0 C 0,0 km/h (0 Bft)
27.02.2015 10:05 2,1 C 1,0 C 63 % 63 % 1012,4 hPa 0,0 l/m 0,0 km/h (0 Bft) N-NO 22 -4,2 C 1,4 C 1,8 km/h (1 Bft)
27.02.2015 10:10 2,3 C 1,0 C 61 % 61 % 1012,4 hPa 0,0 l/m 0,3 km/h (0 Bft) O-NO 67 -4,4 C 1,9 C 0,0 km/h (0 Bft)
27.02.2015 10:15 2,6 C 1,0 C 61 % 61 % 1012,5 hPa 0,0 l/m 0,3 km/h (0 Bft) N-NO 22 -4,1 C 2,5 C 0,0 km/h (0 Bft)
27.02.2015 10:20 3,4 C 1,0 C 60 % 60 % 1012,5 hPa 0,0 l/m 0,0 km/h (0 Bft) N-NO 22 -3,6 C 3,4 C 0,0 km/h (0 Bft)
27.02.2015 10:25 3,9 C 1,0 C 59 % 59 % 1012,5 hPa 0,0 l/m 0,0 km/h (0 Bft) N-NO 22 -3,4 C 4,0 C 0,0 km/h (0 Bft)
27.02.2015 10:30 4,0 C 1,0 C 59 % 59 % 1012,5 hPa 0,0 l/m 0,0 km/h (0 Bft) O-NO 67 -3,3 C 4,8 C 0,0 km/h (0 Bft)
27.02.2015 10:35 4,3 C 1,0 C 58 % 58 % 1012,7 hPa 0,0 l/m 0,0 km/h (0 Bft) NO 45 -3,2 C 5,3 C 0,0 km/h (0 Bft)
27.02.2015 10:40 4,9 C 1,0 C 58 % 58 % 1012,7 hPa 0,0 l/m 0,0 km/h (0 Bft) NO 45 -2,7 C 6,0 C 0,0 km/h (0 Bft)
27.02.2015 10:45 4,9 C 1,0 C 57 % 57 % 1012,7 hPa 0,0 l/m 0,0 km/h (0 Bft) S 180 -2,9 C 6,4 C 0,0 km/h (0 Bft)
27.02.2015 10:50 5,1 C 1,0 C 56 % 56 % 1012,7 hPa 0,0 l/m 0,0 km/h (0 Bft) S 180 -2,9 C 6,5 C 0,0 km/h (0 Bft)
27.02.2015 10:55 4,8 C 1,0 C 56 % 56 % 1012,8 hPa 0,0 l/m 0,0 km/h (0 Bft) S 180 -3,2 C 6,7 C 0,0 km/h (0 Bft)
27.02.2015 11:00 4,8 C 1,0 C 56 % 56 % 1012,8 hPa 0,0 l/m 0,0 km/h (0 Bft) S 180 -3,2 C 6,7 C 0,0 km/h (0 Bft)
27.02.2015 11:05 5,3 C 1,0 C 56 % 56 % 1012,8 hPa 0,0 l/m 0,0 km/h (0 Bft) S 180 -2,8 C 6,7 C 0,0 km/h (0 Bft)
27.02.2015 11:10 6,3 C 0,9 C 56 % 56 % 1012,8 hPa 0,0 l/m 0,0 km/h (0 Bft) S 180 -1,8 C 7,6 C 0,0 km/h (0 Bft)
27.02.2015 11:15 6,2 C 1,0 C 54 % 54 % 1013,0 hPa 0,0 l/m 0,0 km/h (0 Bft) S 180 -2,4 C 7,8 C 0,0 km/h (0 Bft)
27.02.2015 11:20 6,1 C 1,0 C 54 % 54 % 1013,0 hPa 0,0 l/m 0,0 km/h (0 Bft) S 180 -2,5 C 8,0 C 0,0 km/h (0 Bft)
27.02.2015 11:25 6,6 C 1,0 C 54 % 54 % 1013,0 hPa 0,0 l/m 0,0 km/h (0 Bft) S 180 -2,0 C 8,3 C 0,0 km/h (0 Bft)
27.02.2015 11:30 7,1 C 1,0 C 54 % 54 % 1013,0 hPa 0,0 l/m 0,0 km/h (0 Bft) S 180 -1,6 C 8,9 C 0,0 km/h (0 Bft)
27.02.2015 11:35 7,6 C 1,0 C 52 % 52 % 1013,1 hPa 0,0 l/m 0,0 km/h (0 Bft) S 180 -1,6 C 9,3 C 0,0 km/h (0 Bft)
27.02.2015 11:40 7,1 C 1,0 C 52 % 52 % 1013,1 hPa 0,0 l/m 0,0 km/h (0 Bft) S-SW 202 -2,1 C 9,6 C 0,0 km/h (0 Bft)
27.02.2015 11:45 7,3 C 1,0 C 52 % 52 % 1013,1 hPa 0,0 l/m 0,0 km/h (0 Bft) S-SW 202 -1,9 C 9,7 C 0,0 km/h (0 Bft)
27.02.2015 11:50 7,3 C 1,0 C 51 % 51 % 1013,1 hPa 0,0 l/m 0,0 km/h (0 Bft) S-SW 202 -2,2 C 9,7 C 0,0 km/h (0 Bft)
27.02.2015 11:55 7,1 C 1,0 C 49 % 49 % 1013,6 hPa 0,0 l/m 0,0 km/h (0 Bft) W 270 -2,9 C 9,4 C 0,0 km/h (0 Bft)
27.02.2015 12:00 6,7 C 1,0 C 47 % 47 % 1013,6 hPa 0,0 l/m 0,2 km/h (0 Bft) NW 315 -3,8 C 9,1 C 0,0 km/h (0 Bft)
27.02.2015 12:05 6,3 C 1,0 C 47 % 47 % 1013,6 hPa 0,0 l/m 0,2 km/h (0 Bft) NW 315 -4,2 C 9,0 C 0,0 km/h (0 Bft)
27.02.2015 12:10 6,6 C 1,0 C 45 % 45 % 1013,6 hPa 0,0 l/m 0,5 km/h (0 Bft) NW 315 -4,5 C 8,6 C 0,0 km/h (0 Bft)
27.02.2015 12:15 6,4 C 1,0 C 45 % 45 % 1013,6 hPa 0,0 l/m 0,6 km/h (0 Bft) N 360 -4,6 C 8,4 C 0,0 km/h (0 Bft)
27.02.2015 12:20 6,8 C 1,0 C 44 % 44 % 1013,6 hPa 0,0 l/m 0,8 km/h (0 Bft) W 270 -4,6 C 8,5 C 3,2 km/h (1 Bft)
27.02.2015 12:25 6,0 C 1,0 C 43 % 43 % 1013,6 hPa 0,0 l/m 1,9 km/h (1 Bft) W-NW 292 -5,6 C 8,2 C 2,6 km/h (1 Bft)
27.02.2015 12:30 5,7 C 0,9 C 43 % 43 % 1013,6 hPa 0,0 l/m 2,6 km/h (1 Bft) W 270 -5,9 C 7,7 C 2,3 km/h (1 Bft)
27.02.2015 12:35 5,7 C 0,9 C 44 % 44 % 1013,8 hPa 0,0 l/m 2,3 km/h (1 Bft) W 270 -5,6 C 7,4 C 0,0 km/h (0 Bft)
27.02.2015 12:40 5,7 C 0,9 C 44 % 44 % 1013,8 hPa 0,0 l/m 1,4 km/h (1 Bft) O 90 -5,6 C 7,2 C 2,1 km/h (1 Bft)
27.02.2015 12:45 5,7 C 0,9 C 45 % 45 % 1013,8 hPa 0,0 l/m 0,6 km/h (0 Bft) NW 315 -5,3 C 7,2 C 2,6 km/h (1 Bft)
27.02.2015 12:50 5,8 C 1,0 C 45 % 45 % 1013,8 hPa 0,0 l/m 0,3 km/h (0 Bft) NW 315 -5,2 C 7,2 C 0,0 km/h (0 Bft)
27.02.2015 12:55 5,9 C 1,0 C 45 % 45 % 1013,9 hPa 0,0 l/m 0,5 km/h (0 Bft) S-SW 202 -5,1 C 7,2 C 0,0 km/h (0 Bft)
27.02.2015 13:00 5,5 C 1,0 C 45 % 45 % 1013,9 hPa 0,0 l/m 0,8 km/h (0 Bft) NW 315 -5,5 C 7,3 C 2,9 km/h (1 Bft)
27.02.2015 13:05 5,2 C 0,9 C 44 % 44 % 1013,9 hPa 0,0 l/m 1,4 km/h (1 Bft) O-NO 67 -6,0 C 7,0 C 2,4 km/h (1 Bft)
27.02.2015 13:10 5,1 C 0,9 C 46 % 46 % 1013,9 hPa 0,0 l/m 2,3 km/h (1 Bft) O-NO 67 -5,5 C 6,5 C 3,5 km/h (1 Bft)
27.02.2015 13:15 4,9 C 1,0 C 47 % 47 % 1014,1 hPa 0,0 l/m 2,1 km/h (1 Bft) NO 45 -5,4 C 6,3 C 3,5 km/h (1 Bft)
27.02.2015 13:20 4,9 C 1,0 C 49 % 49 % 1014,1 hPa 0,0 l/m 2,3 km/h (1 Bft) N 360 -4,9 C 5,9 C 2,6 km/h (1 Bft)
27.02.2015 13:25 4,4 C 1,0 C 50 % 50 % 1014,1 hPa 0,0 l/m 2,7 km/h (1 Bft) O-NO 67 -5,1 C 5,9 C 5,6 km/h (1 Bft)
27.02.2015 13:30 4,2 C 1,0 C 53 % 53 % 1014,1 hPa 0,0 l/m 2,4 km/h (1 Bft) N-NO 22 -4,5 C 5,6 C 1,9 km/h (1 Bft)
27.02.2015 13:35 4,3 C 1,0 C 54 % 54 % 1014,1 hPa 0,0 l/m 2,1 km/h (1 Bft) W-SW 247 -4,2 C 5,6 C 2,6 km/h (1 Bft)
27.02.2015 13:40 3,9 C 1,0 C 56 % 56 % 1014,1 hPa 0,0 l/m 1,8 km/h (1 Bft) N-NO 22 -4,1 C 5,4 C 3,4 km/h (1 Bft)
27.02.2015 13:45 3,2 C 1,0 C 58 % 58 % 1014,1 hPa 0,0 l/m 2,6 km/h (1 Bft) NO 45 -4,3 C 5,0 C 5,3 km/h (1 Bft)
27.02.2015 13:50 2,7 C 1,0 C 61 % 61 % 1014,1 hPa 0,0 l/m 3,9 km/h (1 Bft) O-NO 67 -4,1 C 3,6 C 3,7 km/h (1 Bft)
27.02.2015 13:55 2,9 C 1,0 C 63 % 63 % 1014,2 hPa 0,0 l/m 3,4 km/h (1 Bft) NO 45 -3,4 C 3,6 C 3,5 km/h (1 Bft)
27.02.2015 14:00 3,0 C 1,0 C 63 % 63 % 1014,2 hPa 0,0 l/m 1,3 km/h (1 Bft) NO 45 -3,3 C 4,1 C 0,0 km/h (0 Bft)
27.02.2015 14:05 2,2 C 1,0 C 64 % 64 % 1014,2 hPa 0,0 l/m 1,8 km/h (1 Bft) NO 45 -3,9 C 3,7 C 3,1 km/h (1 Bft)
27.02.2015 14:10 2,2 C 1,0 C 67 % 67 % 1014,2 hPa 0,0 l/m 3,2 km/h (1 Bft) N-NO 22 -3,3 C 2,9 C 3,7 km/h (1 Bft)
27.02.2015 14:15 2,6 C 1,0 C 68 % 68 % 1014,2 hPa 0,0 l/m 2,7 km/h (1 Bft) N-NO 22 -2,7 C 3,3 C 0,0 km/h (0 Bft)
27.02.2015 14:20 3,3 C 1,0 C 68 % 68 % 1014,2 hPa 0,0 l/m 1,0 km/h (0 Bft) N-NO 22 -2,0 C 3,9 C 0,0 km/h (0 Bft)
27.02.2015 14:25 2,7 C 1,0 C 68 % 68 % 1014,2 hPa 0,0 l/m 0,5 km/h (0 Bft) N-NO 22 -2,6 C 4,1 C 2,1 km/h (1 Bft)
27.02.2015 14:30 2,4 C 1,0 C 69 % 69 % 1014,2 hPa 0,0 l/m 0,8 km/h (0 Bft) NO 45 -2,7 C 3,8 C 0,0 km/h (0 Bft)
27.02.2015 14:35 2,3 C 1,0 C 69 % 69 % 1014,2 hPa 0,0 l/m 1,0 km/h (0 Bft) NO 45 -2,8 C 3,7 C 3,9 km/h (1 Bft)
27.02.2015 14:40 2,4 C 1,0 C 69 % 69 % 1014,2 hPa 0,0 l/m 1,0 km/h (0 Bft) O-SO 112 -2,7 C 3,3 C 0,0 km/h (0 Bft)
27.02.2015 14:45 2,4 C 1,0 C 70 % 70 % 1014,2 hPa 0,0 l/m 1,3 km/h (1 Bft) N-NO 22 -2,5 C 3,4 C 4,5 km/h (1 Bft)
27.02.2015 14:50 2,0 C 1,0 C 71 % 71 % 1014,2 hPa 0,0 l/m 1,8 km/h (1 Bft) N-NO 22 -2,7 C 3,1 C 2,1 km/h (1 Bft)
27.02.2015 14:55 1,8 C 1,0 C 72 % 72 % 1014,4 hPa 0,0 l/m 2,7 km/h (1 Bft) NO 45 -2,7 C 2,9 C 3,7 km/h (1 Bft)
27.02.2015 15:00 1,6 C 1,0 C 73 % 73 % 1014,4 hPa 0,0 l/m 2,7 km/h (1 Bft) NO 45 -2,7 C 2,6 C 3,4 km/h (1 Bft)
27.02.2015 15:05 1,8 C 1,0 C 74 % 74 % 1014,4 hPa 0,0 l/m 2,4 km/h (1 Bft) W-NW 292 -2,3 C 2,4 C 2,6 km/h (1 Bft)
27.02.2015 15:10 1,7 C 1,0 C 74 % 74 % 1014,4 hPa 0,0 l/m 1,4 km/h (1 Bft) NO 45 -2,4 C 2,1 C 2,1 km/h (1 Bft)
27.02.2015 15:15 1,5 C 1,0 C 74 % 74 % 1014,7 hPa 0,0 l/m 1,6 km/h (1 Bft) W 270 -2,6 C 2,0 C 2,7 km/h (1 Bft)
27.02.2015 15:20 1,7 C 1,0 C 74 % 74 % 1014,7 hPa 0,0 l/m 1,1 km/h (1 Bft) W-NW 292 -2,4 C 2,0 C 0,0 km/h (0 Bft)
27.02.2015 15:25 1,7 C 1,0 C 75 % 75 % 1014,7 hPa 0,0 l/m 0,3 km/h (0 Bft) NO 45 -2,2 C 2,0 C 0,0 km/h (0 Bft)
27.02.2015 15:30 1,6 C 1,0 C 75 % 75 % 1014,7 hPa 0,0 l/m 0,0 km/h (0 Bft) NW 315 -2,3 C 2,0 C 0,0 km/h (0 Bft)
27.02.2015 15:35 1,8 C 1,0 C 75 % 75 % 1014,9 hPa 0,0 l/m 0,0 km/h (0 Bft) W-NW 292 -2,1 C 2,1 C 0,0 km/h (0 Bft)
27.02.2015 15:40 1,5 C 1,0 C 75 % 75 % 1014,9 hPa 0,0 l/m 0,3 km/h (0 Bft) W-NW 292 -2,4 C 1,9 C 0,0 km/h (0 Bft)
27.02.2015 15:45 1,7 C 1,0 C 75 % 75 % 1014,9 hPa 0,0 l/m 0,3 km/h (0 Bft) W-NW 292 -2,2 C 1,9 C 0,0 km/h (0 Bft)
27.02.2015 15:50 1,9 C 1,0 C 75 % 75 % 1014,9 hPa 0,0 l/m 0,0 km/h (0 Bft) W-NW 292 -2,1 C 2,1 C 0,0 km/h (0 Bft)
27.02.2015 15:55 1,7 C 1,0 C 75 % 75 % 1014,9 hPa 0,0 l/m 0,0 km/h (0 Bft) W-NW 292 -2,2 C 2,2 C 0,0 km/h (0 Bft)
27.02.2015 16:00 1,7 C 1,0 C 75 % 75 % 1014,9 hPa 0,0 l/m 0,0 km/h (0 Bft) W-NW 292 -2,2 C 2,1 C 0,0 km/h (0 Bft)
27.02.2015 16:05 1,7 C 1,0 C 75 % 75 % 1014,9 hPa 0,0 l/m 0,0 km/h (0 Bft) W-NW 292 -2,2 C 2,0 C 0,0 km/h (0 Bft)
27.02.2015 16:10 1,5 C 1,0 C 75 % 75 % 1014,9 hPa 0,0 l/m 0,0 km/h (0 Bft) W-NW 292 -2,4 C 1,9 C 0,0 km/h (0 Bft)
27.02.2015 16:15 1,6 C 1,0 C 75 % 75 % 1015,1 hPa 0,0 l/m 0,0 km/h (0 Bft) W-NW 292 -2,3 C 1,8 C 0,0 km/h (0 Bft)
27.02.2015 16:20 1,5 C 1,0 C 75 % 75 % 1015,1 hPa 0,0 l/m 0,0 km/h (0 Bft) W-NW 292 -2,4 C 1,7 C 0,0 km/h (0 Bft)
27.02.2015 16:25 1,5 C 1,0 C 75 % 75 % 1015,1 hPa 0,0 l/m 0,0 km/h (0 Bft) W-NW 292 -2,4 C 1,6 C 0,0 km/h (0 Bft)
27.02.2015 16:30 1,6 C 1,0 C 76 % 76 % 1015,1 hPa 0,0 l/m 0,0 km/h (0 Bft) W-NW 292 -2,2 C 1,5 C 0,0 km/h (0 Bft)
27.02.2015 16:35 1,4 C 1,0 C 76 % 76 % 1015,2 hPa 0,0 l/m 0,0 km/h (0 Bft) W 270 -2,4 C 1,4 C 0,0 km/h (0 Bft)
27.02.2015 16:40 1,0 C 1,0 C 76 % 76 % 1015,2 hPa 0,0 l/m 0,0 km/h (0 Bft) NW 315 -2,7 C 1,0 C 0,0 km/h (0 Bft)
27.02.2015 16:45 1,0 C 1,0 C 77 % 77 % 1015,2 hPa 0,0 l/m 0,0 km/h (0 Bft) N-NW 337 -2,6 C 1,0 C 0,0 km/h (0 Bft)
27.02.2015 16:50 1,0 C 1,0 C 77 % 77 % 1015,2 hPa 0,0 l/m 0,8 km/h (0 Bft) W 270 -2,6 C 0,8 C 2,9 km/h (1 Bft)
27.02.2015 16:55 1,0 C 1,0 C 78 % 78 % 1015,4 hPa 0,0 l/m 1,3 km/h (1 Bft) NW 315 -2,4 C 0,7 C 2,4 km/h (1 Bft)
27.02.2015 17:00 1,0 C 1,1 C 79 % 79 % 1015,4 hPa 0,0 l/m 1,9 km/h (1 Bft) W-SW 247 -2,2 C 0,5 C 3,1 km/h (1 Bft)
27.02.2015 17:05 1,0 C 1,1 C 79 % 79 % 1015,4 hPa 0,0 l/m 2,1 km/h (1 Bft) W 270 -2,2 C 0,4 C 2,6 km/h (1 Bft)
27.02.2015 17:10 0,9 C 1,1 C 80 % 80 % 1015,4 hPa 0,0 l/m 2,9 km/h (1 Bft) W 270 -2,2 C -0,1 C 4,5 km/h (1 Bft)
27.02.2015 17:15 0,9 C 1,1 C 80 % 80 % 1015,7 hPa 0,0 l/m 2,9 km/h (1 Bft) W-SW 247 -2,2 C -0,1 C 5,6 km/h (1 Bft)
27.02.2015 17:20 0,8 C 1,1 C 81 % 81 % 1015,7 hPa 0,0 l/m 3,4 km/h (1 Bft) W-SW 247 -2,1 C -0,4 C 3,2 km/h (1 Bft)
27.02.2015 17:25 0,8 C 1,1 C 82 % 82 % 1015,7 hPa 0,0 l/m 3,5 km/h (1 Bft) W-SW 247 -1,9 C -0,6 C 2,4 km/h (1 Bft)
27.02.2015 17:30 0,8 C 1,1 C 82 % 82 % 1015,7 hPa 0,0 l/m 3,5 km/h (1 Bft) W 270 -1,9 C -0,6 C 4,2 km/h (1 Bft)
27.02.2015 17:35 0,7 C 1,1 C 82 % 82 % 1016,1 hPa 0,0 l/m 2,9 km/h (1 Bft) W-SW 247 -2,0 C -0,3 C 2,9 km/h (1 Bft)
27.02.2015 17:40 0,7 C 1,1 C 83 % 83 % 1016,1 hPa 0,0 l/m 3,2 km/h (1 Bft) W 270 -1,8 C -0,5 C 8,9 km/h (2 Bft)
27.02.2015 17:45 0,7 C 1,1 C 83 % 83 % 1016,1 hPa 0,0 l/m 4,3 km/h (1 Bft) W-SW 247 -1,8 C -1,2 C 5,6 km/h (1 Bft)
27.02.2015 17:50 0,7 C 1,1 C 83 % 83 % 1016,1 hPa 0,0 l/m 5,6 km/h (1 Bft) S-SW 202 -1,8 C -1,9 C 14,3 km/h (3 Bft)
27.02.2015 17:55 0,6 C 1,1 C 84 % 84 % 1016,5 hPa 0,0 l/m 4,8 km/h (1 Bft) W-SW 247 -1,8 C -1,5 C 4,2 km/h (1 Bft)
27.02.2015 18:00 0,6 C 1,1 C 84 % 84 % 1016,5 hPa 0,0 l/m 4,3 km/h (1 Bft) W-SW 247 -1,8 C -1,4 C 5,8 km/h (2 Bft)
27.02.2015 18:05 0,6 C 1,1 C 84 % 84 % 1016,5 hPa 0,0 l/m 4,2 km/h (1 Bft) W-SW 247 -1,8 C -1,3 C 3,1 km/h (1 Bft)
27.02.2015 18:10 0,6 C 1,1 C 84 % 84 % 1016,5 hPa 0,0 l/m 4,7 km/h (1 Bft) W-SW 247 -1,8 C -1,6 C 6,1 km/h (2 Bft)
27.02.2015 18:15 0,6 C 1,1 C 85 % 85 % 1016,9 hPa 0,0 l/m 5,5 km/h (1 Bft) W-SW 247 -1,6 C -2,1 C 5,6 km/h (1 Bft)
27.02.2015 18:20 0,6 C 1,1 C 85 % 85 % 1016,9 hPa 0,0 l/m 5,8 km/h (2 Bft) S 180 -1,6 C -2,2 C 6,1 km/h (2 Bft)
27.02.2015 18:25 0,6 C 1,1 C 85 % 85 % 1016,9 hPa 0,0 l/m 5,5 km/h (1 Bft) W-NW 292 -1,6 C -2,1 C 4,0 km/h (1 Bft)
27.02.2015 18:30 0,6 C 1,1 C 86 % 86 % 1016,9 hPa 0,0 l/m 5,5 km/h (1 Bft) W-SW 247 -1,5 C -2,1 C 15,0 km/h (3 Bft)
27.02.2015 18:35 0,6 C 1,1 C 86 % 86 % 1017,1 hPa 0,0 l/m 5,3 km/h (1 Bft) W 270 -1,5 C -2,0 C 5,8 km/h (2 Bft)
27.02.2015 18:40 0,6 C 1,1 C 86 % 86 % 1017,1 hPa 0,0 l/m 6,0 km/h (2 Bft) SW 225 -1,5 C -2,3 C 17,5 km/h (3 Bft)
27.02.2015 18:45 0,6 C 1,1 C 86 % 86 % 1017,1 hPa 0,0 l/m 5,8 km/h (2 Bft) SW 225 -1,5 C -2,2 C 7,9 km/h (2 Bft)
27.02.2015 18:50 0,6 C 1,1 C 86 % 86 % 1017,1 hPa 0,0 l/m 5,5 km/h (1 Bft) W-SW 247 -1,5 C -2,1 C 8,7 km/h (2 Bft)
27.02.2015 18:55 0,6 C 1,1 C 86 % 86 % 1017,4 hPa 0,0 l/m 5,6 km/h (1 Bft) W 270 -1,5 C -2,1 C 4,7 km/h (1 Bft)
27.02.2015 19:00 0,5 C 1,1 C 86 % 86 % 1017,4 hPa 0,0 l/m 5,5 km/h (1 Bft) W-NW 292 -1,6 C -2,1 C 2,1 km/h (1 Bft)
27.02.2015 19:05 0,6 C 1,1 C 86 % 86 % 1017,4 hPa 0,0 l/m 5,5 km/h (1 Bft) W 270 -1,5 C -2,1 C 10,0 km/h (2 Bft)
27.02.2015 19:10 0,6 C 1,1 C 86 % 86 % 1017,4 hPa 0,0 l/m 5,3 km/h (1 Bft) W-SW 247 -1,5 C -2,0 C 5,1 km/h (1 Bft)
27.02.2015 19:15 0,6 C 1,1 C 86 % 86 % 1017,7 hPa 0,0 l/m 5,3 km/h (1 Bft) W-SW 247 -1,5 C -2,0 C 12,4 km/h (3 Bft)
27.02.2015 19:20 0,6 C 1,1 C 86 % 86 % 1017,7 hPa 0,0 l/m 5,3 km/h (1 Bft) W-SW 247 -1,5 C -2,0 C 3,4 km/h (1 Bft)
27.02.2015 19:25 0,6 C 1,1 C 86 % 86 % 1017,7 hPa 0,0 l/m 6,0 km/h (2 Bft) S-SW 202 -1,5 C -2,3 C 5,5 km/h (1 Bft)
27.02.2015 19:30 0,5 C 1,1 C 86 % 86 % 1017,7 hPa 0,0 l/m 5,8 km/h (2 Bft) SW 225 -1,6 C -2,2 C 6,8 km/h (2 Bft)
27.02.2015 19:35 0,5 C 1,1 C 86 % 86 % 1017,9 hPa 0,0 l/m 5,5 km/h (1 Bft) S 180 -1,6 C -2,1 C 7,6 km/h (2 Bft)
27.02.2015 19:40 0,5 C 1,1 C 86 % 86 % 1017,9 hPa 0,0 l/m 5,5 km/h (1 Bft) W 270 -1,6 C -2,1 C 4,3 km/h (1 Bft)
27.02.2015 19:45 0,5 C 1,1 C 86 % 86 % 1017,9 hPa 0,0 l/m 6,0 km/h (2 Bft) SW 225 -1,6 C -2,3 C 6,1 km/h (2 Bft)
27.02.2015 19:50 0,5 C 1,1 C 86 % 86 % 1017,9 hPa 0,0 l/m 5,8 km/h (2 Bft) W-NW 292 -1,6 C -2,2 C 11,3 km/h (2 Bft)
27.02.2015 19:55 0,5 C 1,1 C 86 % 86 % 1018,2 hPa 0,0 l/m 5,3 km/h (1 Bft) W-SW 247 -1,6 C -2,0 C 5,3 km/h (1 Bft)
27.02.2015 20:00 0,5 C 1,1 C 87 % 87 % 1018,2 hPa 0,0 l/m 5,3 km/h (1 Bft) W-SW 247 -1,4 C -2,1 C 6,8 km/h (2 Bft)
27.02.2015 20:05 0,5 C 1,1 C 87 % 87 % 1018,2 hPa 0,0 l/m 5,3 km/h (1 Bft) SW 225 -1,4 C -2,1 C 9,7 km/h (2 Bft)
27.02.2015 20:10 0,4 C 1,1 C 87 % 87 % 1018,2 hPa 0,0 l/m 4,3 km/h (1 Bft) SW 225 -1,5 C -1,6 C 6,0 km/h (2 Bft)
27.02.2015 20:15 0,4 C 1,1 C 87 % 87 % 1018,4 hPa 0,0 l/m 4,7 km/h (1 Bft) W-NW 292 -1,5 C -1,8 C 12,2 km/h (2 Bft)
27.02.2015 20:20 0,4 C 1,1 C 87 % 87 % 1018,4 hPa 0,0 l/m 4,8 km/h (1 Bft) W-SW 247 -1,5 C -1,8 C 9,2 km/h (2 Bft)
27.02.2015 20:25 0,4 C 1,1 C 87 % 87 % 1018,4 hPa 0,0 l/m 4,5 km/h (1 Bft) S-SW 202 -1,5 C -1,7 C 3,5 km/h (1 Bft)
27.02.2015 20:30 0,4 C 1,1 C 87 % 87 % 1018,4 hPa 0,0 l/m 5,0 km/h (1 Bft) W-SW 247 -1,5 C -1,9 C 5,8 km/h (2 Bft)
27.02.2015 20:35 0,4 C 1,1 C 87 % 87 % 1018,6 hPa 0,0 l/m 5,5 km/h (1 Bft) S-SW 202 -1,5 C -2,1 C 6,0 km/h (2 Bft)
27.02.2015 20:40 0,4 C 1,1 C 87 % 87 % 1018,6 hPa 0,0 l/m 6,0 km/h (2 Bft) SW 225 -1,5 C -2,3 C 5,0 km/h (1 Bft)
27.02.2015 20:45 0,4 C 1,1 C 87 % 87 % 1018,6 hPa 0,0 l/m 6,0 km/h (2 Bft) SW 225 -1,5 C -2,3 C 5,8 km/h (2 Bft)
27.02.2015 20:50 0,4 C 1,1 C 87 % 87 % 1018,6 hPa 0,0 l/m 5,1 km/h (1 Bft) W-SW 247 -1,5 C -2,0 C 4,5 km/h (1 Bft)
27.02.2015 20:55 0,4 C 1,1 C 87 % 87 % 1018,9 hPa 0,0 l/m 5,6 km/h (1 Bft) W-SW 247 -1,5 C -2,2 C 6,8 km/h (2 Bft)
27.02.2015 21:00 0,4 C 1,1 C 87 % 87 % 1018,9 hPa 0,0 l/m 4,8 km/h (1 Bft) W-SW 247 -1,5 C -1,8 C 6,4 km/h (2 Bft)
27.02.2015 21:05 0,4 C 1,1 C 87 % 87 % 1018,9 hPa 0,0 l/m 4,3 km/h (1 Bft) W-SW 247 -1,5 C -1,6 C 3,5 km/h (1 Bft)
27.02.2015 21:10 0,4 C 1,1 C 87 % 87 % 1018,9 hPa 0,0 l/m 4,5 km/h (1 Bft) W 270 -1,5 C -1,7 C 5,5 km/h (1 Bft)
27.02.2015 21:15 0,4 C 1,1 C 87 % 87 % 1019,2 hPa 0,0 l/m 4,3 km/h (1 Bft) SW 225 -1,5 C -1,6 C 7,2 km/h (2 Bft)
27.02.2015 21:20 0,4 C 1,1 C 87 % 87 % 1019,2 hPa 0,0 l/m 5,5 km/h (1 Bft) S 180 -1,5 C -2,1 C 4,8 km/h (1 Bft)
27.02.2015 21:25 0,4 C 1,1 C 87 % 87 % 1019,2 hPa 0,0 l/m 6,6 km/h (2 Bft) W-SW 247 -1,5 C -2,8 C 11,4 km/h (2 Bft)
27.02.2015 21:30 0,4 C 1,1 C 87 % 87 % 1019,2 hPa 0,0 l/m 6,0 km/h (2 Bft) SW 225 -1,5 C -2,3 C 5,1 km/h (1 Bft)
27.02.2015 21:35 0,4 C 1,1 C 87 % 87 % 1019,5 hPa 0,0 l/m 5,6 km/h (1 Bft) W-SW 247 -1,5 C -2,2 C 6,0 km/h (2 Bft)
27.02.2015 21:40 0,4 C 1,1 C 87 % 87 % 1019,5 hPa 0,0 l/m 5,6 km/h (1 Bft) W-SW 247 -1,5 C -2,2 C 4,8 km/h (1 Bft)
27.02.2015 21:45 0,4 C 1,1 C 87 % 87 % 1019,5 hPa 0,0 l/m 5,6 km/h (1 Bft) W 270 -1,5 C -2,2 C 10,8 km/h (2 Bft)
27.02.2015 21:50 0,3 C 1,1 C 87 % 87 % 1019,5 hPa 0,0 l/m 4,7 km/h (1 Bft) W-SW 247 -1,6 C -1,8 C 4,0 km/h (1 Bft)
27.02.2015 21:55 0,4 C 1,1 C 87 % 87 % 1019,8 hPa 0,0 l/m 5,3 km/h (1 Bft) SW 225 -1,5 C -2,1 C 4,0 km/h (1 Bft)
27.02.2015 22:00 0,3 C 1,1 C 87 % 87 % 1019,8 hPa 0,0 l/m 4,5 km/h (1 Bft) SW 225 -1,6 C -1,7 C 3,1 km/h (1 Bft)
27.02.2015 22:05 0,4 C 1,1 C 87 % 87 % 1019,8 hPa 0,0 l/m 4,5 km/h (1 Bft) S-SW 202 -1,5 C -1,7 C 5,0 km/h (1 Bft)
27.02.2015 22:10 0,3 C 1,1 C 87 % 87 % 1019,8 hPa 0,0 l/m 4,2 km/h (1 Bft) W-SW 247 -1,6 C -1,6 C 4,0 km/h (1 Bft)
27.02.2015 22:15 0,3 C 1,1 C 87 % 87 % 1019,8 hPa 0,0 l/m 4,0 km/h (1 Bft) W 270 -1,6 C -1,6 C 7,1 km/h (2 Bft)
27.02.2015 22:20 0,3 C 1,1 C 87 % 87 % 1019,8 hPa 0,0 l/m 5,0 km/h (1 Bft) W-NW 292 -1,6 C -2,1 C 6,6 km/h (2 Bft)
27.02.2015 22:25 0,3 C 1,1 C 87 % 87 % 1019,8 hPa 0,0 l/m 5,5 km/h (1 Bft) SW 225 -1,6 C -2,3 C 9,3 km/h (2 Bft)
27.02.2015 22:30 0,3 C 1,1 C 87 % 87 % 1019,8 hPa 0,0 l/m 5,3 km/h (1 Bft) SO 135 -1,6 C -2,2 C 5,5 km/h (1 Bft)
27.02.2015 22:35 0,3 C 1,1 C 87 % 87 % 1020,1 hPa 0,0 l/m 5,5 km/h (1 Bft) SW 225 -1,6 C -2,3 C 8,2 km/h (2 Bft)
27.02.2015 22:40 0,3 C 1,1 C 87 % 87 % 1020,1 hPa 0,0 l/m 4,3 km/h (1 Bft) W-SW 247 -1,6 C -1,7 C 3,4 km/h (1 Bft)
27.02.2015 22:45 0,3 C 1,2 C 87 % 87 % 1020,1 hPa 0,0 l/m 5,1 km/h (1 Bft) W 270 -1,6 C -2,1 C 8,4 km/h (2 Bft)
27.02.2015 22:50 0,3 C 1,2 C 87 % 87 % 1020,1 hPa 0,0 l/m 5,5 km/h (1 Bft) W-SW 247 -1,6 C -2,3 C 5,6 km/h (1 Bft)
27.02.2015 22:55 0,2 C 1,2 C 87 % 87 % 1020,2 hPa 0,0 l/m 5,1 km/h (1 Bft) W-SW 247 -1,7 C -2,1 C 4,0 km/h (1 Bft)
27.02.2015 23:00 0,2 C 1,2 C 87 % 87 % 1020,2 hPa 0,0 l/m 5,0 km/h (1 Bft) W-SW 247 -1,7 C -2,1 C 5,6 km/h (1 Bft)
27.02.2015 23:05 0,2 C 1,2 C 87 % 87 % 1020,2 hPa 0,0 l/m 4,7 km/h (1 Bft) SW 225 -1,7 C -1,9 C 7,1 km/h (2 Bft)
27.02.2015 23:10 0,2 C 1,2 C 87 % 87 % 1020,2 hPa 0,0 l/m 4,5 km/h (1 Bft) W-SW 247 -1,7 C -1,8 C 3,9 km/h (1 Bft)
27.02.2015 23:15 0,2 C 1,2 C 87 % 87 % 1020,4 hPa 0,0 l/m 4,5 km/h (1 Bft) SW 225 -1,7 C -1,8 C 6,1 km/h (2 Bft)
27.02.2015 23:20 0,2 C 1,1 C 87 % 87 % 1020,4 hPa 0,0 l/m 3,5 km/h (1 Bft) SW 225 -1,7 C -1,2 C 4,0 km/h (1 Bft)
27.02.2015 23:25 0,2 C 1,1 C 87 % 87 % 1020,4 hPa 0,0 l/m 3,9 km/h (1 Bft) SW 225 -1,7 C -1,4 C 5,8 km/h (2 Bft)
27.02.2015 23:30 0,2 C 1,1 C 87 % 87 % 1020,4 hPa 0,0 l/m 5,0 km/h (1 Bft) W-SW 247 -1,7 C -2,1 C 5,8 km/h (2 Bft)
27.02.2015 23:35 0,2 C 1,1 C 87 % 87 % 1020,8 hPa 0,0 l/m 4,8 km/h (1 Bft) S-SW 202 -1,7 C -1,9 C 4,0 km/h (1 Bft)
27.02.2015 23:40 0,2 C 1,1 C 87 % 87 % 1020,8 hPa 0,0 l/m 5,1 km/h (1 Bft) W-SW 247 -1,7 C -2,1 C 7,9 km/h (2 Bft)
27.02.2015 23:45 0,2 C 1,1 C 87 % 87 % 1020,8 hPa 0,0 l/m 5,1 km/h (1 Bft) S 180 -1,7 C -2,1 C 5,1 km/h (1 Bft)
27.02.2015 23:50 0,2 C 1,1 C 87 % 87 % 1020,8 hPa 0,0 l/m 4,7 km/h (1 Bft) W-SW 247 -1,7 C -1,9 C 4,8 km/h (1 Bft)
27.02.2015 23:55 0,1 C 1,1 C 87 % 87 % 1021,1 hPa 0,0 l/m 3,9 km/h (1 Bft) W-SW 247 -1,8 C -1,6 C 2,7 km/h (1 Bft)
_ Min-Zeit 07:15 13:10 12:30 12:30 07:50 - 16:45 - - 07:15 07:00 16:45
Minimum _ -10,1 C 0,9 C 43 % 43 % 1012,0 hPa - 0,0 km/h (0 Bft) - - -13,2 C -11,1 C 0,0 km/h (0 Bft)
_ Max-Zeit 11:35 23:15 23:55 23:55 23:55 23:55 21:25 - - 20:05 11:50 18:40
Maximum _ 7,6 C 1,2 C 87 % 87 % 1021,1 hPa 0,0 l/m 6,6 km/h
W-SW (2 Bft)
- - -1,4 C 9,7 C 17,5 km/h
SW (3 Bft)
Durchschnitt _ -2,0 C 1,0 C 75 % 75 % 1015,0 hPa #0,0 l/m 1,8 km/h (1 Bft) W-SW - -6,0 C -2,8 C 2,3 km/h (1 Bft)